Time;durP1;ratioP1;P1;durP2;ratioP2;P2;SDS_P1;SDS_P2;PMS_P1;PMS_P2;Temp;Humidity;BMP_temperature;BMP_pressure;BME280_temperature;BME280_humidity;BME280_pressure;Samples;Min_cycle;Max_cycle;Signal;HPM_P1;HPM_P2
2023/02/25 00:02:22;;;;;;;3.23;2.70;;;;;;;;;;5092443;28;20479;-68
2023/02/25 00:04:49;;;;;;;3.50;2.33;;;;;;;;;;5091376;28;20476;-68
2023/02/25 00:07:17;;;;;;;4.73;2.70;;;;;;;;;;5092137;28;20923;-68
2023/02/25 00:09:44;;;;;;;5.90;2.33;;;;;;;;;;5091678;28;20457;-69
2023/02/25 00:12:12;;;;;;;2.13;1.47;;;;;;;;;;5092576;28;20514;-68
2023/02/25 00:14:39;;;;;;;4.07;2.73;;;;;;;;;;5091706;28;20448;-68
2023/02/25 00:17:06;;;;;;;5.50;2.70;;;;;;;;;;5091261;28;20524;-68
2023/02/25 00:19:33;;;;;;;6.10;3.10;;;;;;;;;;5092163;28;20459;-68
2023/02/25 00:22:00;;;;;;;2.40;2.00;;;;;;;;;;5091455;28;20945;-68
2023/02/25 00:24:29;;;;;;;3.63;3.13;;;;;;;;;;5091263;28;20574;-68
2023/02/25 00:26:56;;;;;;;3.73;2.23;;;;;;;;;;5091582;28;20451;-68
2023/02/25 00:29:23;;;;;;;4.33;3.03;;;;;;;;;;5091721;28;20915;-68
2023/02/25 00:31:50;;;;;;;4.70;2.30;;;;;;;;;;5091256;28;20468;-68
2023/02/25 00:34:17;;;;;;;4.70;2.50;;;;;;;;;;5091403;28;20467;-68
2023/02/25 00:36:44;;;;;;;2.87;2.00;;;;;;;;;;5091327;28;20449;-68
2023/02/25 00:39:11;;;;;;;4.90;3.07;;;;;;;;;;5081611;28;20453;-68
2023/02/25 00:41:40;;;;;;;4.60;2.60;;;;;;;;;;5090562;28;20476;-68
2023/02/25 00:44:07;;;;;;;6.33;3.40;;;;;;;;;;5082171;28;20967;-68
2023/02/25 00:46:34;;;;;;;5.37;2.10;;;;;;;;;;5090208;28;20453;-68
2023/02/25 00:49:02;;;;;;;5.73;3.17;;;;;;;;;;5087247;28;20782;-68
2023/02/25 00:51:30;;;;;;;4.40;3.07;;;;;;;;;;5090893;28;20453;-68
2023/02/25 00:53:57;;;;;;;3.63;2.60;;;;;;;;;;5089995;28;20451;-68
2023/02/25 00:56:25;;;;;;;4.20;2.70;;;;;;;;;;5086482;28;20455;-69
2023/02/25 00:58:53;;;;;;;6.70;3.00;;;;;;;;;;5090987;28;20444;-69
2023/02/25 01:01:21;;;;;;;7.50;3.97;;;;;;;;;;5091132;28;20452;-67
2023/02/25 01:03:50;;;;;;;3.63;2.33;;;;;;;;;;5078881;28;20463;-67
2023/02/25 01:06:17;;;;;;;4.73;2.70;;;;;;;;;;5090939;28;20485;-68
2023/02/25 01:08:44;;;;;;;6.13;3.07;;;;;;;;;;5090612;28;20448;-68
2023/02/25 01:11:13;;;;;;;6.67;3.47;;;;;;;;;;5091176;28;20456;-67
2023/02/25 01:13:40;;;;;;;4.60;2.80;;;;;;;;;;5091439;28;20498;-67
2023/02/25 01:16:13;;;;;;;5.53;2.43;;;;;;;;;;5090504;28;20455;-67
2023/02/25 01:18:40;;;;;;;3.43;3.10;;;;;;;;;;5091407;28;20448;-67
2023/02/25 01:21:08;;;;;;;3.07;2.17;;;;;;;;;;5090937;28;20448;-68
2023/02/25 01:23:35;;;;;;;4.73;2.90;;;;;;;;;;5091015;28;20460;-67
2023/02/25 01:26:04;;;;;;;8.07;3.13;;;;;;;;;;5090015;28;20476;-67
2023/02/25 01:28:31;;;;;;;2.60;2.17;;;;;;;;;;5091098;28;20526;-67
2023/02/25 01:30:58;;;;;;;5.87;3.37;;;;;;;;;;5090347;28;20452;-67
2023/02/25 01:33:27;;;;;;;3.63;1.70;;;;;;;;;;5091201;28;20812;-67
2023/02/25 01:35:54;;;;;;;7.43;2.30;;;;;;;;;;5090098;28;20461;-67
2023/02/25 01:38:21;;;;;;;3.30;1.73;;;;;;;;;;5091135;28;20448;-68
2023/02/25 01:40:48;;;;;;;2.37;1.37;;;;;;;;;;5090198;28;20484;-67
2023/02/25 01:43:17;;;;;;;3.40;2.40;;;;;;;;;;5091068;28;20816;-67
2023/02/25 01:45:45;;;;;;;4.60;2.07;;;;;;;;;;5089764;28;20542;-67
2023/02/25 01:48:14;;;;;;;6.10;1.73;;;;;;;;;;5090749;28;20457;-67
2023/02/25 01:50:46;;;;;;;7.80;1.37;;;;;;;;;;5090617;28;20452;-68
2023/02/25 01:53:14;;;;;;;1.83;1.60;;;;;;;;;;5091104;28;20437;-67
2023/02/25 01:55:42;;;;;;;3.10;2.53;;;;;;;;;;5077503;28;20476;-68
2023/02/25 01:58:09;;;;;;;2.70;2.50;;;;;;;;;;5085824;28;20449;-67
2023/02/25 02:00:37;;;;;;;1.40;1.20;;;;;;;;;;5086171;28;20449;-67
2023/02/25 02:03:04;;;;;;;2.20;1.97;;;;;;;;;;5090006;28;20465;-67
2023/02/25 02:05:38;;;;;;;2.60;2.00;;;;;;;;;;5086030;28;20476;-67
2023/02/25 02:08:08;;;;;;;3.30;1.60;;;;;;;;;;5084307;28;20442;-67
2023/02/25 02:10:35;;;;;;;4.60;1.97;;;;;;;;;;5090203;28;20456;-68
2023/02/25 02:13:02;;;;;;;5.53;2.40;;;;;;;;;;5089510;28;20452;-67
2023/02/25 02:15:31;;;;;;;4.07;1.70;;;;;;;;;;5089638;28;20459;-67
2023/02/25 02:18:00;;;;;;;2.50;1.40;;;;;;;;;;5088647;28;20448;-67
2023/02/25 02:20:28;;;;;;;2.50;1.37;;;;;;;;;;5081276;28;20448;-67
2023/02/25 02:23:06;;;;;;;4.50;2.37;;;;;;;;;;5090906;28;20450;-67
2023/02/25 02:25:51;;;;;;;2.40;1.20;;;;;;;;;;5094190;28;20898;-67
2023/02/25 02:28:38;;;;;;;2.70;2.30;;;;;;;;;;5080469;28;20534;-67
2023/02/25 02:31:13;;;;;;;3.10;1.70;;;;;;;;;;5090384;28;20433;-67
2023/02/25 02:33:45;;;;;;;1.47;1.37;;;;;;;;;;5093857;28;20451;-67
2023/02/25 02:36:16;;;;;;;3.47;1.30;;;;;;;;;;5091411;28;20449;-68
2023/02/25 02:38:47;;;;;;;1.80;1.63;;;;;;;;;;5090318;28;20437;-67
2023/02/25 02:41:18;;;;;;;2.30;1.73;;;;;;;;;;5092785;28;20534;-67
2023/02/25 02:43:47;;;;;;;3.80;1.33;;;;;;;;;;5093387;28;20482;-67
2023/02/25 02:46:19;;;;;;;1.73;1.50;;;;;;;;;;5092235;28;20476;-67
2023/02/25 02:48:49;;;;;;;2.33;1.50;;;;;;;;;;5090282;28;20988;-67
2023/02/25 02:51:17;;;;;;;4.30;1.53;;;;;;;;;;5093280;28;20453;-67
2023/02/25 02:53:46;;;;;;;1.53;1.10;;;;;;;;;;5091141;28;20452;-67
2023/02/25 02:56:15;;;;;;;2.10;1.50;;;;;;;;;;5093667;28;20919;-68
2023/02/25 02:58:44;;;;;;;2.80;2.10;;;;;;;;;;5090348;28;20796;-67
2023/02/25 03:01:13;;;;;;;3.80;1.73;;;;;;;;;;5088231;28;20437;-67
2023/02/25 03:03:45;;;;;;;3.00;1.43;;;;;;;;;;5077353;28;20921;-67
2023/02/25 03:06:13;;;;;;;4.30;2.47;;;;;;;;;;5085878;28;20569;-67
2023/02/25 03:08:44;;;;;;;2.50;2.30;;;;;;;;;;5089558;28;20457;-67
2023/02/25 03:11:11;;;;;;;2.80;1.30;;;;;;;;;;5087806;28;20444;-67
2023/02/25 03:13:39;;;;;;;4.20;1.47;;;;;;;;;;5092991;28;20449;-67
2023/02/25 03:16:08;;;;;;;3.57;1.87;;;;;;;;;;5091509;28;20456;-67
2023/02/25 03:18:37;;;;;;;1.80;1.40;;;;;;;;;;5088793;28;20456;-67
2023/02/25 03:21:08;;;;;;;1.87;1.07;;;;;;;;;;5087605;28;20456;-67
2023/02/25 03:23:38;;;;;;;4.00;2.23;;;;;;;;;;5083341;28;20457;-67
2023/02/25 03:26:09;;;;;;;2.63;1.60;;;;;;;;;;5092481;28;20481;-67
2023/02/25 03:28:36;;;;;;;1.90;1.30;;;;;;;;;;5093249;28;20443;-67
2023/02/25 03:31:06;;;;;;;4.00;1.20;;;;;;;;;;5092397;28;20460;-67
2023/02/25 03:33:37;;;;;;;2.83;1.50;;;;;;;;;;5092780;28;20501;-67
2023/02/25 03:36:08;;;;;;;4.43;1.37;;;;;;;;;;5092112;28;20471;-67
2023/02/25 03:38:38;;;;;;;1.43;1.00;;;;;;;;;;5093076;28;20438;-67
2023/02/25 03:41:07;;;;;;;1.30;1.20;;;;;;;;;;5091940;28;20480;-67
2023/02/25 03:43:37;;;;;;;5.47;0.90;;;;;;;;;;5092804;28;20459;-67
2023/02/25 03:46:05;;;;;;;2.93;2.27;;;;;;;;;;5091687;28;20488;-67
2023/02/25 03:48:33;;;;;;;1.50;0.93;;;;;;;;;;5092341;28;20930;-67
2023/02/25 03:51:01;;;;;;;1.63;1.23;;;;;;;;;;5091995;28;20448;-67
2023/02/25 03:53:30;;;;;;;1.40;1.10;;;;;;;;;;5092506;28;20456;-67
2023/02/25 03:56:04;;;;;;;2.70;1.80;;;;;;;;;;5091368;28;20460;-67
2023/02/25 03:58:31;;;;;;;1.43;1.10;;;;;;;;;;5092576;28;20441;-67
2023/02/25 04:01:01;;;;;;;2.53;1.30;;;;;;;;;;5091746;28;20472;-67
2023/02/25 04:03:28;;;;;;;5.53;1.40;;;;;;;;;;5092322;28;20497;-67
2023/02/25 04:05:55;;;;;;;2.23;1.03;;;;;;;;;;5091307;28;20481;-67
2023/02/25 04:08:22;;;;;;;0.90;0.70;;;;;;;;;;5092254;28;20795;-67
2023/02/25 04:10:51;;;;;;;1.40;0.90;;;;;;;;;;5091927;28;20456;-67
2023/02/25 04:13:19;;;;;;;2.50;1.10;;;;;;;;;;5092124;28;20441;-67
2023/02/25 04:15:47;;;;;;;2.50;0.90;;;;;;;;;;5091020;28;20445;-67
2023/02/25 04:18:14;;;;;;;0.70;0.50;;;;;;;;;;5091952;28;20456;-67
2023/02/25 04:20:41;;;;;;;0.80;0.60;;;;;;;;;;5092309;28;20448;-67
2023/02/25 04:23:08;;;;;;;4.00;1.20;;;;;;;;;;5092515;28;20800;-67
2023/02/25 04:25:37;;;;;;;2.03;1.00;;;;;;;;;;5091143;28;20483;-67
2023/02/25 04:28:05;;;;;;;1.67;0.77;;;;;;;;;;5091182;28;20461;-67
2023/02/25 04:30:32;;;;;;;1.73;1.10;;;;;;;;;;5091471;28;20799;-67
2023/02/25 04:33:00;;;;;;;1.47;1.30;;;;;;;;;;5091160;28;20792;-67
2023/02/25 04:35:27;;;;;;;2.43;0.80;;;;;;;;;;5091398;28;20464;-67
2023/02/25 04:37:54;;;;;;;2.87;0.93;;;;;;;;;;5091366;28;20508;-67
2023/02/25 04:40:22;;;;;;;0.90;0.60;;;;;;;;;;5090757;28;20477;-67
2023/02/25 04:42:49;;;;;;;1.10;0.50;;;;;;;;;;5086374;28;20532;-67
2023/02/25 04:45:19;;;;;;;1.10;0.87;;;;;;;;;;5089151;28;20948;-68
2023/02/25 04:47:46;;;;;;;1.47;0.97;;;;;;;;;;5091023;28;20456;-67
2023/02/25 04:50:13;;;;;;;0.73;0.57;;;;;;;;;;5090116;28;20445;-68
2023/02/25 04:52:40;;;;;;;2.13;1.33;;;;;;;;;;5085730;28;20806;-67
2023/02/25 04:55:09;;;;;;;2.63;1.30;;;;;;;;;;5080656;28;20452;-67
2023/02/25 04:57:41;;;;;;;1.30;0.90;;;;;;;;;;5091527;28;20505;-68
2023/02/25 05:00:09;;;;;;;0.70;0.60;;;;;;;;;;5091039;28;20444;-67
2023/02/25 05:02:38;;;;;;;3.07;1.03;;;;;;;;;;5091084;28;20441;-68
2023/02/25 05:05:05;;;;;;;1.30;0.90;;;;;;;;;;5090311;28;20825;-67
2023/02/25 05:07:32;;;;;;;1.97;1.20;;;;;;;;;;5091074;28;20476;-67
2023/02/25 05:09:59;;;;;;;1.03;0.93;;;;;;;;;;5090437;28;20467;-67
2023/02/25 05:12:26;;;;;;;1.13;0.80;;;;;;;;;;5090772;28;20444;-67
2023/02/25 05:14:53;;;;;;;4.30;1.33;;;;;;;;;;5090129;28;20456;-67
2023/02/25 05:17:20;;;;;;;1.53;0.97;;;;;;;;;;5091000;28;20455;-67
2023/02/25 05:19:49;;;;;;;1.40;0.70;;;;;;;;;;5090621;28;20449;-67
2023/02/25 05:22:16;;;;;;;1.77;0.80;;;;;;;;;;5091239;28;20445;-68
2023/02/25 05:24:43;;;;;;;2.97;0.70;;;;;;;;;;5076959;28;20444;-67
2023/02/25 05:27:10;;;;;;;1.47;0.70;;;;;;;;;;5091085;28;20476;-67
2023/02/25 05:29:37;;;;;;;1.03;0.57;;;;;;;;;;5077571;28;20444;-67
2023/02/25 05:32:05;;;;;;;2.07;1.03;;;;;;;;;;5089953;28;20449;-67
2023/02/25 05:34:32;;;;;;;1.30;0.67;;;;;;;;;;5090585;28;20796;-67
2023/02/25 05:37:00;;;;;;;1.40;0.53;;;;;;;;;;5090206;28;20455;-67
2023/02/25 05:39:27;;;;;;;0.90;0.70;;;;;;;;;;5090639;28;20813;-66
2023/02/25 05:41:54;;;;;;;4.43;1.63;;;;;;;;;;5090071;28;20451;-67
2023/02/25 05:44:22;;;;;;;1.30;0.70;;;;;;;;;;5090158;28;20452;-68
2023/02/25 05:46:49;;;;;;;0.70;0.60;;;;;;;;;;5089956;28;20549;-67
2023/02/25 05:49:16;;;;;;;2.50;1.20;;;;;;;;;;5090371;28;20934;-67
2023/02/25 05:51:43;;;;;;;0.93;0.83;;;;;;;;;;5090736;28;20464;-68
2023/02/25 05:54:11;;;;;;;2.17;0.90;;;;;;;;;;5090291;28;20954;-67
2023/02/25 05:56:39;;;;;;;2.77;0.97;;;;;;;;;;5087046;28;20453;-67
2023/02/25 05:59:06;;;;;;;1.00;0.90;;;;;;;;;;5086671;28;20809;-67
2023/02/25 06:01:33;;;;;;;1.10;1.00;;;;;;;;;;5090020;28;20460;-67
2023/02/25 06:04:00;;;;;;;0.93;0.70;;;;;;;;;;5091584;28;20441;-68
2023/02/25 06:06:29;;;;;;;8.27;1.00;;;;;;;;;;5094860;28;20480;-68
2023/02/25 06:08:56;;;;;;;1.10;0.50;;;;;;;;;;5094499;28;20791;-67
2023/02/25 06:11:25;;;;;;;1.23;0.60;;;;;;;;;;5095068;28;20460;-68
2023/02/25 06:13:53;;;;;;;1.17;0.70;;;;;;;;;;5093706;28;20445;-67
2023/02/25 06:16:20;;;;;;;1.57;1.00;;;;;;;;;;5094762;28;20452;-68
2023/02/25 06:18:50;;;;;;;5.10;1.13;;;;;;;;;;5093949;28;20456;-67
2023/02/25 06:21:17;;;;;;;1.93;0.70;;;;;;;;;;5094620;28;20444;-67
2023/02/25 06:23:44;;;;;;;1.80;0.70;;;;;;;;;;5094091;28;20801;-67
2023/02/25 06:26:14;;;;;;;0.93;0.50;;;;;;;;;;5094368;28;20986;-67
2023/02/25 06:28:42;;;;;;;0.80;0.50;;;;;;;;;;5095487;28;20483;-67
2023/02/25 06:31:10;;;;;;;1.63;0.87;;;;;;;;;;5095612;28;20456;-67
2023/02/25 06:33:38;;;;;;;3.03;0.77;;;;;;;;;;5094276;28;20436;-67
2023/02/25 06:36:05;;;;;;;0.70;0.60;;;;;;;;;;5093694;28;20471;-67
2023/02/25 06:38:32;;;;;;;3.27;0.83;;;;;;;;;;5101148;28;20934;-67
2023/02/25 06:41:00;;;;;;;0.83;0.60;;;;;;;;;;5092297;28;20484;-70
2023/02/25 06:43:27;;;;;;;0.90;0.50;;;;;;;;;;5093586;28;20459;-68
2023/02/25 06:45:55;;;;;;;1.50;0.90;;;;;;;;;;5093671;28;20444;-69
2023/02/25 06:48:22;;;;;;;1.10;0.70;;;;;;;;;;5093740;28;20445;-67
2023/02/25 06:50:49;;;;;;;1.53;0.73;;;;;;;;;;5093482;28;20950;-67
2023/02/25 06:53:17;;;;;;;2.37;0.93;;;;;;;;;;5094331;28;20808;-68
2023/02/25 06:55:44;;;;;;;1.27;0.80;;;;;;;;;;5093401;28;20487;-68
2023/02/25 06:58:11;;;;;;;1.00;0.57;;;;;;;;;;5093762;28;20448;-68
2023/02/25 07:00:38;;;;;;;1.47;0.80;;;;;;;;;;5094044;28;20447;-69
2023/02/25 07:03:07;;;;;;;0.60;0.47;;;;;;;;;;5090797;28;20453;-67
2023/02/25 07:05:34;;;;;;;0.70;0.60;;;;;;;;;;5091934;28;20936;-67
2023/02/25 07:08:01;;;;;;;1.00;0.60;;;;;;;;;;5092403;28;20518;-67
2023/02/25 07:10:28;;;;;;;5.17;0.77;;;;;;;;;;5093893;28;20451;-67
2023/02/25 07:12:55;;;;;;;0.97;0.50;;;;;;;;;;5086682;28;20468;-67
2023/02/25 07:15:22;;;;;;;0.80;0.47;;;;;;;;;;5090955;28;20460;-68
2023/02/25 07:17:49;;;;;;;0.90;0.70;;;;;;;;;;5090351;28;20488;-67
2023/02/25 07:20:18;;;;;;;1.00;0.53;;;;;;;;;;5091287;28;20455;-67
2023/02/25 07:22:45;;;;;;;1.80;0.90;;;;;;;;;;5090216;28;20445;-67
2023/02/25 07:25:12;;;;;;;2.70;0.60;;;;;;;;;;5090707;28;20460;-68
2023/02/25 07:27:40;;;;;;;0.80;0.60;;;;;;;;;;5100956;28;20832;-68
2023/02/25 07:30:08;;;;;;;5.03;0.90;;;;;;;;;;5088698;28;20893;-68
2023/02/25 07:32:35;;;;;;;0.70;0.60;;;;;;;;;;5091756;28;20440;-67
2023/02/25 07:35:03;;;;;;;1.43;0.80;;;;;;;;;;5095454;28;20441;-67
2023/02/25 07:37:31;;;;;;;1.07;0.50;;;;;;;;;;5090385;28;20969;-68
2023/02/25 07:39:59;;;;;;;0.90;0.70;;;;;;;;;;5089857;28;20483;-67
2023/02/25 07:42:26;;;;;;;1.30;1.10;;;;;;;;;;5090876;28;20504;-67
2023/02/25 07:44:53;;;;;;;1.73;0.83;;;;;;;;;;5089857;28;20445;-67
2023/02/25 07:47:21;;;;;;;0.97;0.70;;;;;;;;;;5089865;28;20484;-68
2023/02/25 07:49:48;;;;;;;0.70;0.50;;;;;;;;;;5089534;28;20806;-68
2023/02/25 07:52:15;;;;;;;5.70;1.93;;;;;;;;;;5089983;28;20957;-67
2023/02/25 07:54:43;;;;;;;2.00;1.00;;;;;;;;;;5090379;28;20452;-67
2023/02/25 07:57:11;;;;;;;4.70;2.73;;;;;;;;;;5089604;28;20444;-67
2023/02/25 07:59:38;;;;;;;1.33;0.87;;;;;;;;;;5086505;28;20448;-67
2023/02/25 08:02:09;;;;;;;4.90;0.60;;;;;;;;;;5089943;28;20440;-67
2023/02/25 08:04:36;;;;;;;4.80;0.70;;;;;;;;;;5089951;28;20445;-68
2023/02/25 08:07:03;;;;;;;1.87;0.70;;;;;;;;;;5088565;28;20775;-67
2023/02/25 08:09:30;;;;;;;1.57;1.07;;;;;;;;;;5080917;28;20464;-67
2023/02/25 08:11:58;;;;;;;1.23;0.63;;;;;;;;;;5086119;28;20445;-67
2023/02/25 08:14:25;;;;;;;0.77;0.60;;;;;;;;;;5085350;28;20456;-68
2023/02/25 08:16:55;;;;;;;1.33;0.67;;;;;;;;;;5089690;28;20456;-67
2023/02/25 08:19:23;;;;;;;1.27;0.60;;;;;;;;;;5089353;28;20444;-68
2023/02/25 08:21:50;;;;;;;1.20;0.60;;;;;;;;;;5088608;28;20448;-68
2023/02/25 08:24:19;;;;;;;2.60;0.53;;;;;;;;;;5101253;28;20452;-68
2023/02/25 08:26:46;;;;;;;1.10;0.70;;;;;;;;;;5089350;28;20928;-68
2023/02/25 08:29:15;;;;;;;0.87;0.63;;;;;;;;;;5090510;28;20456;-68
2023/02/25 08:31:42;;;;;;;0.90;0.73;;;;;;;;;;5091007;28;20437;-68
2023/02/25 08:34:09;;;;;;;0.97;0.53;;;;;;;;;;5087072;28;20454;-68
2023/02/25 08:36:36;;;;;;;0.70;0.50;;;;;;;;;;5082436;28;20454;-68
2023/02/25 08:39:03;;;;;;;0.80;0.60;;;;;;;;;;5089301;28;20448;-68
2023/02/25 08:41:31;;;;;;;0.80;0.53;;;;;;;;;;5089147;28;20550;-68
2023/02/25 08:44:00;;;;;;;1.33;1.13;;;;;;;;;;5089083;28;20444;-68
2023/02/25 08:46:29;;;;;;;1.80;0.70;;;;;;;;;;5089830;28;20449;-69
2023/02/25 08:48:56;;;;;;;1.40;0.60;;;;;;;;;;5088488;28;20453;-68
2023/02/25 08:51:24;;;;;;;1.00;0.80;;;;;;;;;;5100236;28;20455;-68
2023/02/25 08:53:51;;;;;;;1.23;0.70;;;;;;;;;;5102059;28;20800;-68
2023/02/25 08:56:18;;;;;;;1.47;0.97;;;;;;;;;;5088070;28;20467;-69
2023/02/25 08:58:45;;;;;;;0.93;0.83;;;;;;;;;;5077496;28;20786;-67
2023/02/25 09:01:13;;;;;;;2.67;2.47;;;;;;;;;;5091600;28;20451;-68
2023/02/25 09:03:52;;;;;;;1.77;0.70;;;;;;;;;;5077627;28;20449;-68
2023/02/25 09:06:19;;;;;;;0.70;0.50;;;;;;;;;;5091873;28;20452;-68
2023/02/25 09:08:46;;;;;;;1.33;0.70;;;;;;;;;;5091157;28;20982;-67
2023/02/25 09:11:13;;;;;;;2.67;0.77;;;;;;;;;;5091646;28;20453;-67
2023/02/25 09:13:40;;;;;;;1.73;1.50;;;;;;;;;;5090895;28;20455;-67
2023/02/25 09:16:08;;;;;;;3.53;0.87;;;;;;;;;;5091144;28;20558;-69
2023/02/25 09:18:35;;;;;;;1.60;0.80;;;;;;;;;;5091356;28;20452;-68
2023/02/25 09:21:04;;;;;;;2.40;1.00;;;;;;;;;;5090521;28;20483;-69
2023/02/25 09:23:31;;;;;;;3.10;1.50;;;;;;;;;;5090636;28;20452;-70
2023/02/25 09:26:02;;;;;;;1.53;1.10;;;;;;;;;;5090806;28;20448;-69
2023/02/25 09:28:29;;;;;;;0.87;0.60;;;;;;;;;;5090940;28;20464;-69
2023/02/25 09:30:57;;;;;;;0.80;0.53;;;;;;;;;;5090668;28;20449;-69
2023/02/25 09:33:24;;;;;;;2.90;1.10;;;;;;;;;;5090945;28;20448;-69
2023/02/25 09:35:51;;;;;;;1.10;1.00;;;;;;;;;;5090269;28;20455;-68
2023/02/25 09:38:20;;;;;;;0.70;0.70;;;;;;;;;;5091182;28;20539;-69
2023/02/25 09:40:48;;;;;;;2.53;0.80;;;;;;;;;;5090159;28;21005;-69
2023/02/25 09:43:20;;;;;;;1.23;1.03;;;;;;;;;;5091401;28;20842;-69
2023/02/25 09:45:48;;;;;;;1.20;0.80;;;;;;;;;;5089225;28;20436;-69
2023/02/25 09:48:18;;;;;;;2.10;0.73;;;;;;;;;;5090620;28;20987;-70
2023/02/25 09:50:47;;;;;;;1.23;0.87;;;;;;;;;;5087313;28;20437;-69
2023/02/25 09:53:16;;;;;;;3.73;0.73;;;;;;;;;;5090373;28;20539;-69
2023/02/25 09:55:46;;;;;;;0.70;0.50;;;;;;;;;;5089934;28;20442;-68
2023/02/25 09:58:18;;;;;;;0.57;0.40;;;;;;;;;;5090419;28;20962;-69
2023/02/25 10:00:48;;;;;;;1.27;0.70;;;;;;;;;;5089948;28;21055;-71
2023/02/25 10:03:20;;;;;;;0.60;0.40;;;;;;;;;;5090125;28;20798;-69
2023/02/25 10:05:51;;;;;;;1.17;0.63;;;;;;;;;;5090244;28;20444;-70
2023/02/25 10:08:21;;;;;;;0.93;0.63;;;;;;;;;;5090255;28;20468;-69
2023/02/25 10:10:57;;;;;;;0.80;0.43;;;;;;;;;;5090525;28;20808;-70
2023/02/25 10:13:28;;;;;;;1.87;0.50;;;;;;;;;;5089945;28;20476;-69
2023/02/25 10:16:00;;;;;;;0.60;0.50;;;;;;;;;;5090221;28;20444;-70
2023/02/25 10:18:39;;;;;;;0.70;0.50;;;;;;;;;;5090119;28;20444;-70
2023/02/25 10:21:10;;;;;;;0.80;0.70;;;;;;;;;;5090126;28;20448;-69
2023/02/25 10:23:44;;;;;;;9.40;2.63;;;;;;;;;;5090354;28;20451;-69
2023/02/25 10:26:17;;;;;;;1.33;0.60;;;;;;;;;;5090942;28;20436;-70
2023/02/25 10:28:46;;;;;;;0.80;0.40;;;;;;;;;;5090460;28;20472;-69
2023/02/25 10:31:14;;;;;;;0.70;0.50;;;;;;;;;;5090704;28;20440;-69
2023/02/25 10:33:41;;;;;;;1.10;0.70;;;;;;;;;;5090008;28;20951;-69
2023/02/25 10:36:10;;;;;;;1.37;0.60;;;;;;;;;;5089463;28;20469;-69
2023/02/25 10:38:39;;;;;;;0.80;0.60;;;;;;;;;;5081750;28;20983;-69
2023/02/25 10:41:06;;;;;;;0.60;0.40;;;;;;;;;;5089518;28;20480;-69
2023/02/25 10:43:35;;;;;;;0.80;0.50;;;;;;;;;;5091353;28;20452;-69
2023/02/25 10:46:04;;;;;;;1.07;0.70;;;;;;;;;;5093270;28;20448;-69
2023/02/25 10:48:31;;;;;;;1.30;0.70;;;;;;;;;;5094031;28;20857;-69
2023/02/25 10:51:04;;;;;;;0.63;0.47;;;;;;;;;;5093298;28;20457;-69
2023/02/25 10:53:31;;;;;;;3.57;0.77;;;;;;;;;;5094102;28;20476;-69
2023/02/25 10:55:59;;;;;;;0.90;0.70;;;;;;;;;;5093221;28;20444;-69
2023/02/25 10:58:30;;;;;;;1.00;0.67;;;;;;;;;;5093823;28;20456;-69
2023/02/25 11:01:00;;;;;;;0.60;0.50;;;;;;;;;;5093762;28;20469;-69
2023/02/25 11:03:29;;;;;;;0.70;0.60;;;;;;;;;;5093798;28;20438;-68
2023/02/25 11:06:08;;;;;;;1.03;0.60;;;;;;;;;;5092977;28;20471;-69
2023/02/25 11:08:35;;;;;;;0.60;0.40;;;;;;;;;;5080711;28;20468;-68
2023/02/25 11:11:04;;;;;;;0.97;0.67;;;;;;;;;;5093425;28;20460;-68
2023/02/25 11:13:32;;;;;;;0.90;0.80;;;;;;;;;;5093534;28;20444;-70
2023/02/25 11:16:03;;;;;;;0.60;0.50;;;;;;;;;;5092841;28;20448;-70
2023/02/25 11:18:32;;;;;;;0.77;0.57;;;;;;;;;;5093409;28;20920;-68
2023/02/25 11:21:00;;;;;;;0.70;0.50;;;;;;;;;;5093010;28;20505;-68
2023/02/25 11:23:32;;;;;;;0.70;0.60;;;;;;;;;;5093361;28;20449;-68
2023/02/25 11:26:00;;;;;;;0.97;0.60;;;;;;;;;;5092691;28;20447;-69
2023/02/25 11:28:30;;;;;;;0.67;0.63;;;;;;;;;;5093604;28;20545;-71
2023/02/25 11:31:08;;;;;;;0.70;0.50;;;;;;;;;;5093018;28;20448;-69
2023/02/25 11:33:37;;;;;;;1.10;0.70;;;;;;;;;;5093361;28;20440;-69
2023/02/25 11:36:06;;;;;;;0.70;0.70;;;;;;;;;;5092201;28;20498;-69
2023/02/25 11:38:34;;;;;;;1.20;0.50;;;;;;;;;;5092973;28;20456;-69
2023/02/25 11:41:01;;;;;;;0.50;0.40;;;;;;;;;;5079429;28;20568;-68
2023/02/25 11:43:35;;;;;;;1.73;0.90;;;;;;;;;;5092762;28;20597;-68
2023/02/25 11:46:03;;;;;;;4.10;1.13;;;;;;;;;;5092347;28;20532;-70
2023/02/25 11:48:40;;;;;;;1.63;0.50;;;;;;;;;;5092771;28;20488;-70
2023/02/25 11:51:15;;;;;;;1.97;1.50;;;;;;;;;;5092368;28;20561;-68
2023/02/25 11:53:50;;;;;;;2.03;0.83;;;;;;;;;;5093212;28;20800;-68
2023/02/25 11:56:22;;;;;;;0.90;0.73;;;;;;;;;;5092414;28;20474;-69
2023/02/25 11:58:54;;;;;;;1.73;0.60;;;;;;;;;;5092386;28;20451;-69
2023/02/25 12:01:25;;;;;;;0.80;0.80;;;;;;;;;;5092883;28;20445;-69
2023/02/25 12:04:12;;;;;;;1.87;0.80;;;;;;;;;;5092214;28;20440;-68
2023/02/25 12:06:46;;;;;;;5.73;1.03;;;;;;;;;;5092498;28;20449;-69
2023/02/25 12:09:30;;;;;;;0.60;0.50;;;;;;;;;;5092815;28;20472;-68
2023/02/25 12:12:21;;;;;;;1.50;0.57;;;;;;;;;;5080322;28;20449;-68
2023/02/25 12:15:07;;;;;;;0.70;0.60;;;;;;;;;;5071671;28;20959;-68
2023/02/25 12:17:58;;;;;;;0.80;0.50;;;;;;;;;;5092080;28;20448;-68
2023/02/25 12:20:46;;;;;;;0.60;0.40;;;;;;;;;;5017696;28;20444;-68
2023/02/25 12:23:32;;;;;;;0.60;0.50;;;;;;;;;;5092161;28;20445;-69
2023/02/25 12:26:06;;;;;;;0.67;0.67;;;;;;;;;;5091499;28;20535;-69
2023/02/25 12:28:43;;;;;;;1.00;0.60;;;;;;;;;;5092120;28;20784;-68
2023/02/25 12:31:28;;;;;;;0.60;0.60;;;;;;;;;;5092090;28;20444;-68
2023/02/25 12:34:12;;;;;;;3.80;0.73;;;;;;;;;;5051010;28;20954;-68
2023/02/25 12:36:48;;;;;;;0.83;0.80;;;;;;;;;;5091670;28;20437;-69
2023/02/25 12:39:23;;;;;;;2.30;1.00;;;;;;;;;;5092060;28;20455;-68
2023/02/25 12:41:55;;;;;;;1.87;0.60;;;;;;;;;;5090929;28;20847;-69
2023/02/25 12:44:33;;;;;;;0.83;0.50;;;;;;;;;;5092065;28;20448;-69
2023/02/25 12:47:06;;;;;;;0.90;0.60;;;;;;;;;;5090999;28;20459;-69
2023/02/25 12:49:49;;;;;;;0.70;0.60;;;;;;;;;;5091763;28;20487;-69
2023/02/25 12:52:22;;;;;;;0.90;0.63;;;;;;;;;;5091934;28;20793;-69
2023/02/25 12:54:58;;;;;;;0.80;0.80;;;;;;;;;;5091023;28;20451;-69
2023/02/25 12:57:39;;;;;;;0.70;0.57;;;;;;;;;;5092016;28;20432;-69
2023/02/25 13:00:30;;;;;;;4.27;1.00;;;;;;;;;;5090927;28;20448;-69
2023/02/25 13:03:07;;;;;;;2.20;0.87;;;;;;;;;;5090710;28;20449;-68
2023/02/25 13:05:47;;;;;;;2.63;1.63;;;;;;;;;;5090914;28;20939;-69
2023/02/25 13:08:20;;;;;;;1.00;0.70;;;;;;;;;;5088637;28;20500;-69
2023/02/25 13:10:53;;;;;;;1.90;0.80;;;;;;;;;;5090756;28;20769;-69
2023/02/25 13:13:37;;;;;;;2.50;0.67;;;;;;;;;;5091541;28;20807;-69
2023/02/25 13:16:13;;;;;;;1.70;0.93;;;;;;;;;;5090480;28;20570;-68
2023/02/25 13:18:49;;;;;;;1.80;1.43;;;;;;;;;;5091309;28;20931;-69
2023/02/25 13:21:36;;;;;;;1.00;0.80;;;;;;;;;;5091415;28;20590;-68
2023/02/25 13:24:18;;;;;;;2.20;0.90;;;;;;;;;;5090884;28;21254;-68
2023/02/25 13:26:56;;;;;;;0.90;0.80;;;;;;;;;;5090070;28;20449;-69
2023/02/25 13:29:38;;;;;;;1.03;0.80;;;;;;;;;;5091308;28;20522;-68
2023/02/25 13:32:14;;;;;;;1.07;0.63;;;;;;;;;;5087863;28;20456;-68
2023/02/25 13:34:46;;;;;;;2.23;0.77;;;;;;;;;;5091019;28;20782;-68
2023/02/25 13:37:20;;;;;;;1.53;1.43;;;;;;;;;;5090892;28;20921;-68
2023/02/25 13:39:58;;;;;;;1.50;0.80;;;;;;;;;;5092766;28;20491;-68
2023/02/25 13:42:34;;;;;;;2.07;1.10;;;;;;;;;;5091326;28;20463;-69
2023/02/25 13:45:16;;;;;;;2.63;0.93;;;;;;;;;;5089977;28;20789;-68
2023/02/25 13:47:53;;;;;;;1.63;1.30;;;;;;;;;;5074556;28;20449;-67
2023/02/25 13:50:41;;;;;;;0.80;0.70;;;;;;;;;;5090988;28;20576;-68
2023/02/25 13:53:16;;;;;;;2.10;0.63;;;;;;;;;;5084362;28;20472;-69
2023/02/25 13:55:51;;;;;;;2.13;1.07;;;;;;;;;;5077295;28;20505;-67
2023/02/25 13:58:33;;;;;;;2.60;0.80;;;;;;;;;;5090947;28;20459;-68
2023/02/25 14:01:18;;;;;;;2.80;1.63;;;;;;;;;;5090038;28;20441;-69
2023/02/25 14:04:03;;;;;;;1.83;0.90;;;;;;;;;;5077157;28;20444;-68
2023/02/25 14:06:42;;;;;;;2.43;1.13;;;;;;;;;;5047369;28;20444;-67
2023/02/25 14:09:14;;;;;;;2.80;1.03;;;;;;;;;;5089994;28;20981;-69
2023/02/25 14:11:45;;;;;;;1.77;0.93;;;;;;;;;;5089725;28;20495;-69
2023/02/25 14:14:31;;;;;;;4.20;1.20;;;;;;;;;;5091073;28;20444;-71
2023/02/25 14:17:12;;;;;;;3.60;2.10;;;;;;;;;;5073089;28;20479;-71
2023/02/25 14:19:44;;;;;;;1.53;0.80;;;;;;;;;;5087026;28;20982;-70
2023/02/25 14:22:25;;;;;;;1.40;0.90;;;;;;;;;;5083882;28;20951;-71
2023/02/25 14:24:57;;;;;;;1.13;1.00;;;;;;;;;;5092097;28;20442;-71
2023/02/25 14:27:26;;;;;;;2.30;0.90;;;;;;;;;;5087074;28;20799;-71
2023/02/25 14:30:04;;;;;;;3.57;1.30;;;;;;;;;;5084884;28;20487;-71
2023/02/25 14:32:38;;;;;;;0.93;0.70;;;;;;;;;;5087904;28;20463;-71
2023/02/25 14:35:18;;;;;;;2.30;0.70;;;;;;;;;;5080736;28;20444;-70
2023/02/25 14:37:51;;;;;;;1.60;0.60;;;;;;;;;;5088973;28;20973;-71
2023/02/25 14:40:24;;;;;;;0.70;0.60;;;;;;;;;;5091843;28;20495;-71
2023/02/25 14:43:06;;;;;;;1.37;0.87;;;;;;;;;;5089899;28;20539;-71
2023/02/25 14:45:36;;;;;;;2.50;0.90;;;;;;;;;;5089274;28;20460;-71
2023/02/25 14:48:05;;;;;;;0.80;0.60;;;;;;;;;;5084397;28;20452;-71
2023/02/25 14:50:37;;;;;;;2.50;0.87;;;;;;;;;;5091515;28;20495;-71
2023/02/25 14:53:23;;;;;;;0.70;0.50;;;;;;;;;;5084546;28;20805;-71
2023/02/25 14:56:08;;;;;;;1.10;0.50;;;;;;;;;;5077988;28;20961;-71
2023/02/25 14:58:53;;;;;;;1.40;1.10;;;;;;;;;;5087965;28;20453;-70
2023/02/25 15:01:37;;;;;;;4.63;0.80;;;;;;;;;;5089601;28;20816;-71
2023/02/25 15:04:23;;;;;;;2.37;0.70;;;;;;;;;;5086085;28;20447;-71